createdAt,value
2022-11-09T00:00:44.378Z,0.57
2022-11-09T00:03:46.246Z,0.50
2022-11-09T00:06:47.747Z,0.47
2022-11-09T00:09:49.337Z,0.30
2022-11-09T00:12:51.490Z,0.40
2022-11-09T00:15:52.947Z,0.30
2022-11-09T00:21:57.309Z,0.30
2022-11-09T00:24:58.871Z,0.50
2022-11-09T00:31:05.013Z,0.50
2022-11-09T00:34:06.764Z,0.30
2022-11-09T00:37:08.878Z,0.50
2022-11-09T00:40:13.206Z,0.40
2022-11-09T00:43:16.168Z,0.38
2022-11-09T00:46:21.299Z,0.25
2022-11-09T00:49:28.454Z,0.30
2022-11-09T00:52:30.223Z,0.30
2022-11-09T00:58:35.602Z,0.32
2022-11-09T01:01:37.271Z,0.25
2022-11-09T01:04:39.981Z,0.20
2022-11-09T01:07:41.704Z,0.20
2022-11-09T01:10:44.896Z,0.20
2022-11-09T01:13:47.230Z,0.20
2022-11-09T01:16:49.061Z,0.40
2022-11-09T01:19:50.957Z,0.30
2022-11-09T01:22:53.613Z,0.28
2022-11-09T01:25:58.095Z,0.50
2022-11-09T01:29:00.538Z,0.28
2022-11-09T01:32:03.502Z,0.15
2022-11-09T01:35:06.960Z,0.30
2022-11-09T01:38:09.599Z,0.20
2022-11-09T01:41:17.514Z,0.20
2022-11-09T01:44:20.514Z,0.28
2022-11-09T01:47:25.452Z,0.22
2022-11-09T01:50:35.868Z,0.30
2022-11-09T01:53:45.302Z,0.20
2022-11-09T01:56:50.404Z,0.35
2022-11-09T01:59:56.521Z,0.35
2022-11-09T02:03:01.943Z,0.32
2022-11-09T02:06:06.182Z,0.10
2022-11-09T02:09:14.514Z,0.35
2022-11-09T02:12:17.721Z,0.30
2022-11-09T02:15:21.363Z,0.38
2022-11-09T02:18:23.124Z,0.30
2022-11-09T02:24:30.315Z,0.20
2022-11-09T02:27:32.126Z,0.25
2022-11-09T02:30:35.383Z,0.28
2022-11-09T02:33:43.808Z,0.25
2022-11-09T02:36:49.312Z,0.20
2022-11-09T02:39:56.911Z,0.20
2022-11-09T02:42:59.911Z,0.20
2022-11-09T02:46:01.694Z,0.30
2022-11-09T02:49:05.003Z,0.40
2022-11-09T02:52:07.724Z,0.30
2022-11-09T02:55:10.294Z,0.32
2022-11-09T02:58:13.464Z,0.30
2022-11-09T03:01:19.770Z,0.13
2022-11-09T03:04:21.929Z,0.20
2022-11-09T03:07:25.918Z,0.25
2022-11-09T03:10:27.817Z,0.13
2022-11-09T03:13:30.275Z,0.28
2022-11-09T03:16:32.511Z,0.40
2022-11-09T03:19:34.022Z,0.20
2022-11-09T03:25:38.349Z,0.30
2022-11-09T03:28:40.300Z,0.15
2022-11-09T03:31:42.189Z,0.38
2022-11-09T03:34:45.435Z,0.30
2022-11-09T03:37:49.620Z,0.20
2022-11-09T03:40:51.202Z,0.30
2022-11-09T03:43:53.262Z,0.30
2022-11-09T03:46:54.795Z,0.15
2022-11-09T03:52:58.839Z,0.20
2022-11-09T03:56:00.266Z,0.30
2022-11-09T04:02:03.708Z,0.22
2022-11-09T04:05:07.358Z,0.20
2022-11-09T04:08:09.867Z,0.22
2022-11-09T04:11:12.999Z,0.30
2022-11-09T04:14:14.392Z,0.20
2022-11-09T04:17:41.479Z,0.25
2022-11-09T04:20:43.804Z,0.13
2022-11-09T04:23:47.837Z,0.20
2022-11-09T04:26:49.403Z,0.20
2022-11-09T04:29:50.828Z,0.25
2022-11-09T04:32:52.236Z,0.10
2022-11-09T04:38:55.586Z,0.20
2022-11-09T04:41:57.007Z,0.17
2022-11-09T04:44:58.393Z,0.08
2022-11-09T04:48:00.945Z,0.10
2022-11-09T04:51:04.616Z,0.20
2022-11-09T04:54:06.782Z,0.20
2022-11-09T04:57:08.139Z,0.28
2022-11-09T05:00:10.498Z,0.30
2022-11-09T05:03:37.784Z,0.20
2022-11-09T05:06:39.313Z,0.20
2022-11-09T05:09:41.400Z,0.40
2022-11-09T05:12:45.894Z,0.45
2022-11-09T05:15:47.530Z,0.30
2022-11-09T05:18:49.750Z,0.20
2022-11-09T05:21:51.418Z,0.40
2022-11-09T05:24:53.251Z,0.20
2022-11-09T05:27:54.677Z,0.45
2022-11-09T05:30:56.203Z,0.60
2022-11-09T05:33:58.579Z,0.57
2022-11-09T05:37:03.432Z,0.40
2022-11-09T05:40:07.128Z,0.40
2022-11-09T05:43:08.554Z,0.47
2022-11-09T05:46:10.632Z,0.40
2022-11-09T05:49:36.819Z,0.43
2022-11-09T05:52:39.186Z,0.22
2022-11-09T05:56:07.573Z,0.60
2022-11-09T05:59:09.195Z,0.40
2022-11-09T06:02:10.782Z,0.30
2022-11-09T06:05:12.581Z,0.40
2022-11-09T06:08:15.122Z,0.30
2022-11-09T06:11:23.601Z,0.52
2022-11-09T06:14:26.138Z,0.40
2022-11-09T06:17:27.575Z,0.40
2022-11-09T06:23:31.138Z,0.40
2022-11-09T06:26:33.309Z,0.20
2022-11-09T06:29:34.736Z,0.50
2022-11-09T06:32:36.114Z,0.50
2022-11-09T06:38:39.564Z,0.70
2022-11-09T06:41:46.240Z,0.70
2022-11-09T06:44:48.998Z,0.80
2022-11-09T06:50:51.786Z,0.75
2022-11-09T06:56:55.604Z,0.40
2022-11-09T06:59:59.456Z,0.50
2022-11-09T07:03:02.196Z,0.70
2022-11-09T07:06:05.535Z,0.38
2022-11-09T07:09:07.033Z,0.43
2022-11-09T07:15:12.012Z,0.60
2022-11-09T07:18:13.475Z,0.80
2022-11-09T07:24:16.758Z,0.50
2022-11-09T07:27:21.382Z,0.30
2022-11-09T07:30:26.380Z,0.47
2022-11-09T07:36:31.402Z,0.30
2022-11-09T07:39:33.505Z,0.30
2022-11-09T07:42:35.542Z,0.40
2022-11-09T07:45:37.173Z,0.20
2022-11-09T07:48:38.651Z,0.40
2022-11-09T07:54:41.723Z,0.30
2022-11-09T07:57:43.899Z,0.30
2022-11-09T08:00:45.379Z,0.50
2022-11-09T08:06:48.182Z,0.20
2022-11-09T08:12:54.366Z,0.17
2022-11-09T08:16:00.845Z,0.40
2022-11-09T08:19:02.500Z,0.25
2022-11-09T08:22:04.157Z,0.38
2022-11-09T08:25:06.378Z,0.38
2022-11-09T08:28:14.346Z,0.22
2022-11-09T08:31:16.417Z,0.63
2022-11-09T08:37:19.965Z,0.50
2022-11-09T08:40:23.512Z,0.65
2022-11-09T08:43:26.072Z,0.45
2022-11-09T08:46:27.581Z,0.30
2022-11-09T08:52:30.868Z,0.30
2022-11-09T08:55:32.613Z,0.40
2022-11-09T08:58:35.445Z,0.20
2022-11-09T09:01:36.980Z,0.30
2022-11-09T09:04:38.527Z,0.20
2022-11-09T09:07:42.156Z,0.30
2022-11-09T09:10:43.707Z,0.43
2022-11-09T09:13:47.669Z,0.28
2022-11-09T09:16:49.434Z,0.30
2022-11-09T09:19:52.243Z,0.30
2022-11-09T09:22:54.421Z,0.22
2022-11-09T09:25:59.114Z,0.32
2022-11-09T09:29:01.394Z,0.63
2022-11-09T09:32:06.427Z,0.50
2022-11-09T09:35:14.087Z,0.30
2022-11-09T09:38:21.851Z,0.20
2022-11-09T09:41:40.832Z,0.55
2022-11-09T09:44:56.863Z,0.40
2022-11-09T09:48:05.939Z,0.38
2022-11-09T09:51:15.582Z,0.50
2022-11-09T09:54:23.289Z,0.30
2022-11-09T09:57:29.997Z,0.30
2022-11-09T10:00:37.957Z,0.32
2022-11-09T10:03:46.062Z,0.20
2022-11-09T10:06:59.768Z,0.20
2022-11-09T10:10:19.475Z,0.40
2022-11-09T10:13:37.154Z,0.30
2022-11-09T10:16:54.662Z,0.22
2022-11-09T10:20:10.801Z,0.43
2022-11-09T10:23:37.914Z,1.67
2022-11-09T10:26:43.920Z,0.60
2022-11-09T10:29:54.073Z,0.40
2022-11-09T10:33:13.944Z,0.40
2022-11-09T10:36:27.941Z,0.30
2022-11-09T10:39:40.495Z,0.30
2022-11-09T10:43:02.941Z,0.40
2022-11-09T10:46:20.539Z,0.30
2022-11-09T10:49:42.465Z,0.30
2022-11-09T10:53:10.215Z,0.30
2022-11-09T10:56:32.921Z,0.30
2022-11-09T10:59:57.991Z,0.30
2022-11-09T11:03:20.731Z,0.28
2022-11-09T11:06:39.850Z,0.20
2022-11-09T11:10:10.141Z,0.40
2022-11-09T11:13:27.260Z,0.40
2022-11-09T11:16:52.018Z,0.30
2022-11-09T11:20:28.466Z,0.17
2022-11-09T11:24:14.609Z,0.20
2022-11-09T11:27:43.125Z,0.22
2022-11-09T11:30:57.687Z,0.30
2022-11-09T11:34:32.374Z,0.28
2022-11-09T11:38:09.219Z,0.30
2022-11-09T11:41:41.180Z,0.20
2022-11-09T11:45:39.012Z,0.20
2022-11-09T11:49:14.547Z,0.20
2022-11-09T11:52:38.481Z,0.30
2022-11-09T11:56:18.295Z,0.30
2022-11-09T11:59:53.095Z,0.20
2022-11-09T12:03:28.534Z,0.30
2022-11-09T12:07:08.855Z,0.30
2022-11-09T12:10:44.238Z,0.30
2022-11-09T12:14:09.321Z,0.35
2022-11-09T12:17:40.813Z,0.20
2022-11-09T12:21:10.712Z,0.30
2022-11-09T12:24:35.240Z,0.30
2022-11-09T12:28:02.969Z,0.20
2022-11-09T12:31:34.633Z,0.20
2022-11-09T12:34:56.340Z,0.28
2022-11-09T12:38:15.101Z,0.20
2022-11-09T12:41:30.727Z,0.30
2022-11-09T12:45:04.451Z,0.28
2022-11-09T12:48:24.738Z,0.20
2022-11-09T12:52:05.547Z,0.40
2022-11-09T12:55:26.426Z,0.35
2022-11-09T12:58:39.039Z,0.50
2022-11-09T13:02:00.885Z,0.50
2022-11-09T13:05:34.652Z,0.57
2022-11-09T13:09:04.338Z,0.30
2022-11-09T13:12:26.245Z,0.30
2022-11-09T13:15:39.021Z,1.27
2022-11-09T13:18:58.349Z,0.80
2022-11-09T13:22:47.282Z,0.80
2022-11-09T13:26:22.081Z,0.82
2022-11-09T13:29:52.314Z,0.75
2022-11-09T13:33:17.885Z,0.68
2022-11-09T13:36:38.001Z,0.40
2022-11-09T13:39:57.927Z,0.30
2022-11-09T13:43:24.097Z,0.30
2022-11-09T13:46:39.127Z,0.30
2022-11-09T13:49:58.005Z,0.32
2022-11-09T13:53:47.877Z,0.30
2022-11-09T13:57:10.134Z,0.40
2022-11-09T14:00:28.596Z,0.30
2022-11-09T14:03:51.059Z,0.13
2022-11-09T14:07:16.521Z,0.40
2022-11-09T14:10:54.547Z,0.20
2022-11-09T14:14:33.755Z,0.28
2022-11-09T14:17:59.642Z,0.30
2022-11-09T14:21:36.797Z,0.20
2022-11-09T14:24:57.804Z,0.20
2022-11-09T14:28:22.619Z,0.10
2022-11-09T14:31:45.526Z,0.30
2022-11-09T14:35:17.814Z,0.30
2022-11-09T14:38:47.691Z,0.30
2022-11-09T14:42:12.189Z,0.20
2022-11-09T14:45:28.443Z,0.22
2022-11-09T14:48:51.449Z,0.30
2022-11-09T14:52:12.228Z,0.15
2022-11-09T14:55:28.817Z,0.30
2022-11-09T14:58:49.375Z,0.10
2022-11-09T15:02:12.356Z,0.20
2022-11-09T15:05:31.785Z,0.40
2022-11-09T15:08:55.415Z,0.20
2022-11-09T15:12:13.507Z,0.35
2022-11-09T15:15:30.159Z,0.40
2022-11-09T15:18:48.533Z,0.40
2022-11-09T15:22:37.310Z,0.35
2022-11-09T15:25:58.423Z,0.47
2022-11-09T15:29:28.965Z,0.28
2022-11-09T15:32:48.074Z,0.30
2022-11-09T15:36:24.984Z,0.40
2022-11-09T15:39:38.154Z,0.20
2022-11-09T15:42:58.496Z,0.25
2022-11-09T15:46:20.479Z,0.20
2022-11-09T15:49:37.858Z,0.38
2022-11-09T15:52:57.828Z,0.38
2022-11-09T15:56:20.990Z,0.28
2022-11-09T15:59:38.503Z,0.28
2022-11-09T16:02:58.017Z,0.20
2022-11-09T16:06:21.446Z,0.30
2022-11-09T16:09:38.699Z,0.32
2022-11-09T16:12:57.903Z,0.30
2022-11-09T16:16:18.509Z,0.32
2022-11-09T16:19:38.838Z,0.30
2022-11-09T16:22:58.255Z,0.30
2022-11-09T16:26:19.583Z,0.38
2022-11-09T16:29:40.008Z,0.32
2022-11-09T16:32:58.464Z,0.50
2022-11-09T16:36:21.185Z,0.30
2022-11-09T16:39:38.626Z,0.20
2022-11-09T16:42:59.554Z,0.32
2022-11-09T16:46:25.773Z,0.70
2022-11-09T16:49:39.033Z,0.30
2022-11-09T16:52:58.690Z,0.30
2022-11-09T16:56:18.366Z,0.50
2022-11-09T16:59:38.948Z,0.30
2022-11-09T17:03:02.075Z,0.30
2022-11-09T17:06:19.007Z,0.30
2022-11-09T17:09:38.338Z,0.40
2022-11-09T17:12:58.376Z,0.30
2022-11-09T17:16:19.627Z,0.40
2022-11-09T17:19:38.543Z,0.30
2022-11-09T17:22:59.158Z,0.30
2022-11-09T17:26:19.416Z,0.50
2022-11-09T17:29:39.016Z,0.40
2022-11-09T17:32:58.644Z,0.28
2022-11-09T17:36:35.107Z,0.55
2022-11-09T17:39:59.006Z,0.95
2022-11-09T17:43:18.390Z,0.45
2022-11-09T17:46:40.973Z,0.30
2022-11-09T17:49:58.297Z,0.32
2022-11-09T17:53:20.654Z,0.30
2022-11-09T17:56:39.151Z,0.40
2022-11-09T17:59:58.850Z,0.30
2022-11-09T18:03:20.923Z,0.40
2022-11-09T18:06:39.010Z,0.30
2022-11-09T18:09:58.523Z,0.30
2022-11-09T18:13:18.934Z,0.30
2022-11-09T18:16:38.445Z,0.50
2022-11-09T18:19:58.557Z,0.38
2022-11-09T18:23:18.632Z,0.50
2022-11-09T18:26:38.319Z,0.55
2022-11-09T18:30:00.976Z,0.30
2022-11-09T18:33:18.906Z,0.30
2022-11-09T18:36:40.398Z,0.60
2022-11-09T18:39:58.327Z,0.40
2022-11-09T18:43:18.806Z,0.43
2022-11-09T18:46:39.272Z,0.60
2022-11-09T18:49:58.723Z,0.63
2022-11-09T18:53:19.879Z,0.40
2022-11-09T18:56:38.593Z,0.30
2022-11-09T18:59:58.394Z,0.50
2022-11-09T19:03:19.257Z,0.30
2022-11-09T19:06:38.380Z,0.40
2022-11-09T19:09:59.339Z,0.40
2022-11-09T19:13:18.427Z,0.35
2022-11-09T19:16:38.762Z,0.45
2022-11-09T19:19:58.974Z,0.40
2022-11-09T19:23:18.512Z,0.30
2022-11-09T19:26:38.997Z,0.45
2022-11-09T19:29:59.195Z,0.43
2022-11-09T19:33:19.185Z,0.40
2022-11-09T19:36:39.193Z,0.40
2022-11-09T19:39:58.345Z,0.70
2022-11-09T19:43:19.134Z,0.50
2022-11-09T19:46:38.834Z,0.50
2022-11-09T19:49:58.454Z,0.40
2022-11-09T19:53:19.185Z,0.47
2022-11-09T19:56:38.482Z,0.47
2022-11-09T19:59:58.595Z,0.40
2022-11-09T20:03:18.542Z,0.50
2022-11-09T20:06:39.703Z,0.70
2022-11-09T20:09:59.764Z,0.52
2022-11-09T20:13:18.846Z,0.50
2022-11-09T20:16:39.560Z,0.50
2022-11-09T20:19:58.378Z,0.47
2022-11-09T20:23:21.626Z,0.50
2022-11-09T20:26:40.031Z,0.57
2022-11-09T20:29:58.726Z,0.60
2022-11-09T20:33:19.089Z,0.50
2022-11-09T20:36:38.411Z,0.60
2022-11-09T20:39:58.410Z,0.57
2022-11-09T20:43:19.074Z,0.68
2022-11-09T20:46:38.350Z,0.65
2022-11-09T20:49:58.391Z,0.40
2022-11-09T20:53:18.428Z,0.82
2022-11-09T20:56:38.414Z,0.60
2022-11-09T20:59:59.562Z,0.70
2022-11-09T21:03:18.517Z,0.60
2022-11-09T21:06:38.827Z,0.82
2022-11-09T21:09:58.547Z,0.70
2022-11-09T21:13:18.584Z,0.80
2022-11-09T21:16:39.613Z,0.90
2022-11-09T21:19:58.389Z,0.70
2022-11-09T21:23:33.181Z,0.70
2022-11-09T21:27:03.233Z,0.80
2022-11-09T21:30:18.668Z,0.85
2022-11-09T21:33:39.318Z,0.50
2022-11-09T21:36:58.544Z,0.73
2022-11-09T21:40:18.413Z,0.60
2022-11-09T21:43:38.609Z,0.80
2022-11-09T21:46:59.023Z,0.80
2022-11-09T21:50:19.047Z,0.95
2022-11-09T21:53:38.417Z,0.70
2022-11-09T21:56:58.931Z,0.73
2022-11-09T22:00:19.288Z,0.63
2022-11-09T22:03:40.641Z,0.80
2022-11-09T22:06:59.202Z,0.68
2022-11-09T22:10:18.573Z,0.70
2022-11-09T22:13:53.965Z,0.80
2022-11-09T22:17:09.122Z,0.80
2022-11-09T22:20:43.135Z,0.73
2022-11-09T22:23:59.452Z,0.80
2022-11-09T22:27:18.526Z,0.70
2022-11-09T22:30:38.562Z,0.80
2022-11-09T22:33:58.576Z,0.70
2022-11-09T22:37:18.665Z,0.60
2022-11-09T22:40:39.112Z,0.63
2022-11-09T22:43:59.278Z,0.70
2022-11-09T22:47:18.476Z,0.82
2022-11-09T22:50:38.439Z,0.60
2022-11-09T22:53:58.490Z,0.63
2022-11-09T22:57:19.034Z,0.60
2022-11-09T23:00:38.423Z,0.80
2022-11-09T23:03:58.619Z,0.60
2022-11-09T23:07:18.558Z,0.77
2022-11-09T23:10:38.695Z,0.70
2022-11-09T23:13:59.280Z,0.70
2022-11-09T23:17:33.248Z,0.60
2022-11-09T23:20:48.571Z,0.68
2022-11-09T23:24:29.008Z,0.60
2022-11-09T23:27:50.055Z,0.82
2022-11-09T23:31:13.024Z,0.50
2022-11-09T23:34:28.674Z,0.70
2022-11-09T23:37:57.071Z,0.63
2022-11-09T23:41:10.614Z,0.88
2022-11-09T23:44:28.566Z,0.80
2022-11-09T23:47:49.134Z,0.63
2022-11-09T23:51:09.210Z,0.90
2022-11-09T23:54:28.458Z,0.70
2022-11-09T23:57:48.539Z,0.80
